Barriere, Canada
Current Conditions -  °F | °C
As of 3:00 PM on Wednesday 22 Oct 2014 (Local Time) from CYKA Reporting Station
Overcast Overcast  
Wind Chill: 59°   Ceiling: 12000
Heat Index: 59°   Visibility: 40mi
Dew Point: 41°   Wind: 13mph
Humidity: 51%   Direction: 80°E
Pressure: 29.64"   Gusts: 20mph
Location:  51.18°N, 120.13°W
Report Text: CYKA 222200Z 08011G17KT 40SM SCT060 BKN120 OVC230 15/05 A2964 RMK CU3AC4CI1 PRESFR SLP039 DENSITY ALT 1700FT
Loading
Personal Weather Stations






























Interactive Weather Map
Tropical Storm Tracking
New forecast layout! Learn more

10-Day Weather Forecast

Advertisements
Track Severe Weather on mobile